Time;durP1;ratioP1;P1;durP2;ratioP2;P2;SDS_P1;SDS_P2;PMS_P1;PMS_P2;Temp;Humidity;BMP_temperature;BMP_pressure;BME280_temperature;BME280_humidity;BME280_pressure;Samples;Min_cycle;Max_cycle;Signal;HPM_P1;HPM_P2
2022/04/23 00:02:24;;;;;;;;;;;10.60;99.90;;;;;;5011432;28;19929;-72
2022/04/23 00:04:51;;;;;;;;;;;10.60;99.90;;;;;;5011349;28;20024;-72
2022/04/23 00:07:19;;;;;;;;;;;10.50;99.90;;;;;;5011299;28;20027;-72
2022/04/23 00:09:45;;;;;;;;;;;10.50;99.90;;;;;;5011242;28;20474;-72
2022/04/23 00:12:12;;;;;;;;;;;10.50;99.90;;;;;;5011314;28;19961;-72
2022/04/23 00:14:39;;;;;;;;;;;10.40;99.90;;;;;;5012044;28;20364;-72
2022/04/23 00:17:05;;;;;;;;;;;10.40;99.90;;;;;;5012447;28;19926;-72
2022/04/23 00:19:33;;;;;;;;;;;10.40;99.90;;;;;;5010975;28;19964;-71
2022/04/23 00:22:00;;;;;;;;;;;10.40;99.90;;;;;;5012080;28;19930;-71
2022/04/23 00:24:28;;;;;;;;;;;10.30;99.90;;;;;;5010900;28;20032;-72
2022/04/23 00:26:55;;;;;;;;;;;10.30;99.90;;;;;;5008392;28;19965;-72
2022/04/23 00:29:22;;;;;;;;;;;10.30;99.90;;;;;;5005144;28;19933;-72
2022/04/23 00:31:48;;;;;;;;;;;10.20;99.90;;;;;;5010217;28;20003;-71
2022/04/23 00:34:15;;;;;;;;;;;10.20;99.90;;;;;;5010347;28;19968;-72
2022/04/23 00:36:42;;;;;;;;;;;10.20;99.90;;;;;;5012087;28;19926;-72
2022/04/23 00:39:08;;;;;;;;;;;10.20;99.90;;;;;;5010432;28;20386;-72
2022/04/23 00:41:46;;;;;;;;;;;10.20;99.90;;;;;;5010534;28;20397;-72
2022/04/23 00:44:13;;;;;;;;;;;10.10;99.90;;;;;;5010539;28;19925;-72
2022/04/23 00:46:40;;;;;;;;;;;10.10;99.90;;;;;;5010655;28;19953;-72
2022/04/23 00:49:06;;;;;;;;;;;10.10;99.90;;;;;;5010227;28;19971;-72
2022/04/23 00:51:34;;;;;;;;;;;10.10;99.90;;;;;;5010504;28;20440;-72
2022/04/23 00:54:04;;;;;;;;;;;10.10;99.90;;;;;;5010103;28;19929;-72
2022/04/23 00:56:31;;;;;;;;;;;10.00;99.90;;;;;;5010710;28;19925;-72
2022/04/23 00:59:00;;;;;;;;;;;10.00;99.90;;;;;;5010477;28;20168;-70
2022/04/23 01:01:27;;;;;;;;;;;10.00;99.90;;;;;;5010346;28;19925;-73
2022/04/23 01:03:54;;;;;;;;;;;10.00;99.90;;;;;;5010118;28;19957;-72
2022/04/23 01:06:23;;;;;;;;;;;10.00;99.90;;;;;;5009928;28;19933;-72
2022/04/23 01:08:50;;;;;;;;;;;10.00;99.90;;;;;;5010215;28;20351;-72
2022/04/23 01:11:17;;;;;;;;;;;10.00;99.90;;;;;;5010554;28;19926;-72
2022/04/23 01:13:44;;;;;;;;;;;9.90;99.90;;;;;;5009923;28;20325;-73
2022/04/23 01:16:12;;;;;;;;;;;9.90;99.90;;;;;;5010554;28;19933;-72
2022/04/23 01:18:41;;;;;;;;;;;9.90;99.90;;;;;;5010046;28;19932;-72
2022/04/23 01:21:10;;;;;;;;;;;9.90;99.90;;;;;;5010225;28;19925;-72
2022/04/23 01:23:39;;;;;;;;;;;9.90;99.90;;;;;;5010102;28;19989;-72
2022/04/23 01:26:05;;;;;;;;;;;9.90;99.90;;;;;;5010171;28;19931;-72
2022/04/23 01:28:34;;;;;;;;;;;9.90;99.90;;;;;;5010165;28;19949;-72
2022/04/23 01:31:01;;;;;;;;;;;9.90;99.90;;;;;;5009693;28;19925;-72
2022/04/23 01:33:28;;;;;;;;;;;9.90;99.90;;;;;;5006064;28;19926;-72
2022/04/23 01:35:55;;;;;;;;;;;9.90;99.90;;;;;;5015678;28;19952;-72
2022/04/23 01:38:23;;;;;;;;;;;9.80;99.90;;;;;;4990804;28;20412;-72
2022/04/23 01:40:50;;;;;;;;;;;9.80;99.90;;;;;;4993583;28;19929;-72
2022/04/23 01:43:16;;;;;;;;;;;9.80;99.90;;;;;;4994589;28;19941;-72
2022/04/23 01:45:44;;;;;;;;;;;9.80;99.90;;;;;;4995429;28;20278;-72
2022/04/23 01:48:11;;;;;;;;;;;9.80;99.90;;;;;;4994385;28;19930;-72
2022/04/23 01:50:38;;;;;;;;;;;9.80;99.90;;;;;;4994203;28;19930;-72
2022/04/23 01:53:05;;;;;;;;;;;9.80;99.90;;;;;;4994449;28;19984;-72
2022/04/23 01:55:33;;;;;;;;;;;9.70;99.90;;;;;;4993842;28;19926;-71
2022/04/23 01:58:00;;;;;;;;;;;9.70;99.90;;;;;;4994070;28;19925;-72
2022/04/23 02:00:27;;;;;;;;;;;9.70;99.90;;;;;;4993845;28;20033;-72
2022/04/23 02:02:54;;;;;;;;;;;9.70;99.90;;;;;;4994077;28;19945;-72
2022/04/23 02:05:21;;;;;;;;;;;9.70;99.90;;;;;;4994008;28;19933;-72
2022/04/23 02:07:48;;;;;;;;;;;9.70;99.90;;;;;;4994150;28;20463;-72
2022/04/23 02:10:15;;;;;;;;;;;9.70;99.90;;;;;;4993562;28;19926;-72
2022/04/23 02:12:45;;;;;;;;;;;9.70;99.90;;;;;;4993816;28;20024;-72
2022/04/23 02:15:13;;;;;;;;;;;9.70;99.90;;;;;;4993620;28;19926;-72
2022/04/23 02:17:40;;;;;;;;;;;9.70;99.90;;;;;;4994221;28;20383;-72
2022/04/23 02:20:08;;;;;;;;;;;9.70;99.90;;;;;;4993662;28;19926;-72
2022/04/23 02:22:35;;;;;;;;;;;9.70;99.90;;;;;;4994045;28;19926;-71
2022/04/23 02:25:02;;;;;;;;;;;9.70;99.90;;;;;;4993301;28;20316;-72
2022/04/23 02:27:28;;;;;;;;;;;9.70;99.90;;;;;;4993555;28;19929;-72
2022/04/23 02:29:57;;;;;;;;;;;9.60;99.90;;;;;;4993593;28;20017;-72
2022/04/23 02:32:23;;;;;;;;;;;9.60;99.90;;;;;;4993470;28;19926;-72
2022/04/23 02:34:50;;;;;;;;;;;9.60;99.90;;;;;;4993260;28;19988;-72
2022/04/23 02:37:17;;;;;;;;;;;9.60;99.90;;;;;;4993686;28;19933;-72
2022/04/23 02:39:44;;;;;;;;;;;9.60;99.90;;;;;;4993077;28;20397;-72
2022/04/23 02:42:11;;;;;;;;;;;9.60;99.90;;;;;;4993601;28;20290;-72
2022/04/23 02:44:38;;;;;;;;;;;9.70;99.90;;;;;;4993197;28;20328;-72
2022/04/23 02:47:06;;;;;;;;;;;9.60;99.90;;;;;;4993450;28;19932;-72
2022/04/23 02:49:33;;;;;;;;;;;9.60;99.90;;;;;;4992951;28;19929;-72
2022/04/23 02:52:00;;;;;;;;;;;9.60;99.90;;;;;;4992029;28;19930;-70
2022/04/23 02:54:27;;;;;;;;;;;9.60;99.90;;;;;;4992937;28;19929;-72
2022/04/23 02:56:55;;;;;;;;;;;9.50;99.90;;;;;;4993388;28;19929;-71
2022/04/23 02:59:22;;;;;;;;;;;9.50;99.90;;;;;;4993356;28;19925;-72
2022/04/23 03:01:49;;;;;;;;;;;9.50;99.90;;;;;;4993317;28;19980;-72
2022/04/23 03:04:17;;;;;;;;;;;9.50;99.90;;;;;;4992933;28;19933;-72
2022/04/23 03:06:45;;;;;;;;;;;9.50;99.90;;;;;;4993273;28;20297;-72
2022/04/23 03:09:12;;;;;;;;;;;9.40;99.90;;;;;;4992689;28;19968;-73
2022/04/23 03:11:39;;;;;;;;;;;9.40;99.90;;;;;;4992825;28;20464;-72
2022/04/23 03:14:06;;;;;;;;;;;9.40;99.90;;;;;;4992844;28;19925;-73
2022/04/23 03:16:33;;;;;;;;;;;9.30;99.90;;;;;;4993506;28;20394;-73
2022/04/23 03:19:00;;;;;;;;;;;9.30;99.90;;;;;;4993563;28;19926;-73
2022/04/23 03:21:28;;;;;;;;;;;9.30;99.90;;;;;;4994408;28;19976;-74
2022/04/23 03:23:55;;;;;;;;;;;9.20;99.90;;;;;;4994401;28;19929;-74
2022/04/23 03:26:22;;;;;;;;;;;9.20;99.90;;;;;;4994142;28;19961;-74
2022/04/23 03:28:48;;;;;;;;;;;9.10;99.90;;;;;;4992842;28;19976;-74
2022/04/23 03:33:45;;;;;;;;;;;9.10;99.90;;;;;;5042896;28;19929;-72
2022/04/23 03:36:12;;;;;;;;;;;9.00;99.90;;;;;;5049661;28;19925;-73
2022/04/23 03:38:40;;;;;;;;;;;9.00;99.90;;;;;;5052930;28;19971;-73
2022/04/23 03:41:08;;;;;;;;;;;9.00;99.90;;;;;;5052028;28;19970;-76
2022/04/23 03:43:35;;;;;;;;;;;9.00;99.90;;;;;;5032537;28;20507;-75
2022/04/23 03:46:02;;;;;;;;;;;9.00;99.90;;;;;;5032134;28;19932;-75
2022/04/23 03:48:28;;;;;;;;;;;9.00;99.90;;;;;;5032133;28;19957;-75
2022/04/23 03:50:55;;;;;;;;;;;9.00;99.90;;;;;;5032165;28;19975;-75
2022/04/23 03:53:22;;;;;;;;;;;9.00;99.90;;;;;;5031855;28;20039;-76
2022/04/23 03:55:50;;;;;;;;;;;9.00;99.90;;;;;;5032255;28;19925;-75
2022/04/23 03:58:16;;;;;;;;;;;9.00;99.90;;;;;;5032186;28;20010;-75
2022/04/23 04:00:43;;;;;;;;;;;9.00;99.90;;;;;;5031661;28;19931;-75
2022/04/23 04:03:10;;;;;;;;;;;8.90;99.90;;;;;;5031532;28;19929;-76
2022/04/23 04:05:36;;;;;;;;;;;8.90;99.90;;;;;;5031935;28;19932;-76
2022/04/23 04:08:03;;;;;;;;;;;8.90;99.90;;;;;;5031636;28;19933;-75
2022/04/23 04:10:30;;;;;;;;;;;8.80;99.90;;;;;;5031922;28;20463;-75
2022/04/23 04:12:58;;;;;;;;;;;8.80;99.90;;;;;;5031654;28;19929;-75
2022/04/23 04:15:25;;;;;;;;;;;8.80;99.90;;;;;;5031350;28;20351;-76
2022/04/23 04:17:52;;;;;;;;;;;8.70;99.90;;;;;;5031532;28;19979;-75
2022/04/23 04:20:20;;;;;;;;;;;8.70;99.90;;;;;;5031697;28;19940;-75
2022/04/23 04:22:47;;;;;;;;;;;8.70;99.90;;;;;;5031387;28;20025;-75
2022/04/23 04:25:14;;;;;;;;;;;8.70;99.90;;;;;;5031123;28;19936;-75
2022/04/23 04:27:41;;;;;;;;;;;8.70;99.90;;;;;;5031602;28;19925;-76
2022/04/23 04:30:11;;;;;;;;;;;8.60;99.90;;;;;;5031187;28;19979;-75
2022/04/23 04:32:38;;;;;;;;;;;8.60;99.90;;;;;;5031550;28;20451;-76
2022/04/23 04:35:05;;;;;;;;;;;8.60;99.90;;;;;;5031127;28;20020;-75
2022/04/23 04:37:33;;;;;;;;;;;8.50;99.90;;;;;;5031503;28;20021;-75
2022/04/23 04:39:59;;;;;;;;;;;8.40;99.90;;;;;;5031216;28;19929;-75
2022/04/23 04:42:27;;;;;;;;;;;8.40;99.90;;;;;;5031373;28;19979;-75
2022/04/23 04:44:53;;;;;;;;;;;8.50;99.90;;;;;;5030870;28;20016;-75
2022/04/23 04:47:22;;;;;;;;;;;8.40;99.90;;;;;;5031265;28;19932;-75
2022/04/23 04:49:48;;;;;;;;;;;8.40;99.90;;;;;;5031047;28;20329;-75
2022/04/23 04:52:15;;;;;;;;;;;8.40;99.90;;;;;;5030818;28;20344;-76
2022/04/23 04:54:42;;;;;;;;;;;8.40;99.90;;;;;;5030645;28;19932;-76
2022/04/23 04:57:09;;;;;;;;;;;8.40;99.90;;;;;;5031012;28;19936;-73
2022/04/23 04:59:36;;;;;;;;;;;8.50;99.90;;;;;;5030670;28;19925;-76
2022/04/23 05:02:02;;;;;;;;;;;8.50;99.90;;;;;;5026881;28;20365;-75
2022/04/23 05:04:31;;;;;;;;;;;8.50;99.90;;;;;;5012101;28;19929;-76
2022/04/23 05:06:58;;;;;;;;;;;8.50;99.90;;;;;;5017380;28;20459;-74
2022/04/23 05:09:25;;;;;;;;;;;8.50;99.90;;;;;;5029526;28;19925;-74
2022/04/23 05:11:52;;;;;;;;;;;8.50;99.90;;;;;;5034212;28;19931;-73
2022/04/23 05:14:19;;;;;;;;;;;8.60;99.90;;;;;;5013109;28;20369;-74
2022/04/23 05:16:46;;;;;;;;;;;8.60;99.90;;;;;;5019781;28;19932;-74
2022/04/23 05:19:12;;;;;;;;;;;8.70;99.90;;;;;;5019974;28;19925;-74
2022/04/23 05:21:41;;;;;;;;;;;8.80;99.90;;;;;;5029786;28;20343;-73
2022/04/23 05:24:08;;;;;;;;;;;8.80;99.90;;;;;;5020220;28;19930;-73
2022/04/23 05:26:35;;;;;;;;;;;8.90;99.90;;;;;;5010502;28;20298;-74
2022/04/23 05:29:02;;;;;;;;;;;9.00;99.90;;;;;;5010050;28;19929;-74
2022/04/23 05:31:29;;;;;;;;;;;9.00;99.90;;;;;;5009875;28;19930;-74
2022/04/23 05:33:56;;;;;;;;;;;9.10;99.90;;;;;;5010041;28;20028;-74
2022/04/23 05:36:22;;;;;;;;;;;9.20;99.90;;;;;;5013094;28;19945;-74
2022/04/23 05:38:51;;;;;;;;;;;9.30;99.90;;;;;;5029697;28;20054;-72
2022/04/23 05:41:17;;;;;;;;;;;9.40;99.90;;;;;;5029893;28;20385;-73
2022/04/23 05:43:44;;;;;;;;;;;9.40;99.90;;;;;;5029747;28;19925;-73
2022/04/23 05:46:11;;;;;;;;;;;9.50;99.90;;;;;;5029863;28;19979;-74
2022/04/23 05:48:38;;;;;;;;;;;9.60;99.90;;;;;;5029408;28;19965;-74
2022/04/23 05:51:04;;;;;;;;;;;9.60;99.90;;;;;;5029380;28;20393;-75
2022/04/23 05:53:31;;;;;;;;;;;9.70;99.90;;;;;;5029447;28;20355;-75
2022/04/23 05:55:59;;;;;;;;;;;9.80;99.90;;;;;;5029952;28;19925;-75
2022/04/23 05:58:26;;;;;;;;;;;9.80;99.90;;;;;;5029678;28;19971;-75
2022/04/23 06:00:54;;;;;;;;;;;9.80;99.90;;;;;;5029724;28;19972;-75
2022/04/23 06:03:21;;;;;;;;;;;9.90;99.90;;;;;;5029874;28;20496;-75
2022/04/23 06:05:48;;;;;;;;;;;10.00;99.90;;;;;;5063447;28;19929;-75
2022/04/23 06:08:15;;;;;;;;;;;10.10;99.90;;;;;;5030333;28;19995;-75
2022/04/23 06:10:41;;;;;;;;;;;10.20;99.90;;;;;;5025614;28;19925;-75
2022/04/23 06:13:10;;;;;;;;;;;10.30;99.90;;;;;;5010094;28;19952;-75
2022/04/23 06:15:37;;;;;;;;;;;10.30;99.90;;;;;;5010084;28;19926;-75
2022/04/23 06:18:04;;;;;;;;;;;10.40;99.90;;;;;;5010562;28;19929;-74
2022/04/23 06:20:30;;;;;;;;;;;10.50;99.90;;;;;;5009695;28;19925;-74
2022/04/23 06:22:57;;;;;;;;;;;10.60;99.90;;;;;;5009832;28;19933;-75
2022/04/23 06:25:24;;;;;;;;;;;10.70;99.90;;;;;;5010760;28;19929;-75
2022/04/23 06:27:51;;;;;;;;;;;10.80;99.90;;;;;;5013694;28;20023;-75
2022/04/23 06:30:19;;;;;;;;;;;10.90;99.90;;;;;;5012884;28;20048;-75
2022/04/23 06:32:46;;;;;;;;;;;10.90;99.90;;;;;;5013161;28;19925;-75
2022/04/23 06:35:13;;;;;;;;;;;11.00;99.90;;;;;;5021776;28;20359;-75
2022/04/23 06:37:41;;;;;;;;;;;11.00;99.90;;;;;;5028608;28;19936;-77
2022/04/23 06:40:08;;;;;;;;;;;11.10;99.90;;;;;;5032736;28;19925;-75
2022/04/23 06:42:35;;;;;;;;;;;11.10;99.90;;;;;;5032656;28;20389;-74
2022/04/23 06:45:04;;;;;;;;;;;11.30;99.90;;;;;;5033804;28;20023;-82
2022/04/23 06:47:32;;;;;;;;;;;11.30;99.90;;;;;;5034210;28;20343;-77
2022/04/23 06:49:59;;;;;;;;;;;11.30;99.90;;;;;;5028720;28;19925;-75
2022/04/23 06:52:26;;;;;;;;;;;11.40;99.90;;;;;;5023204;28;20371;-75
2022/04/23 06:54:54;;;;;;;;;;;11.50;99.90;;;;;;5031653;28;20376;-74
2022/04/23 06:57:22;;;;;;;;;;;11.60;99.90;;;;;;5029807;28;19925;-75
2022/04/23 06:59:49;;;;;;;;;;;11.60;99.90;;;;;;5027145;28;20408;-75
2022/04/23 07:02:16;;;;;;;;;;;11.70;99.90;;;;;;5032097;28;19979;-75
2022/04/23 07:04:44;;;;;;;;;;;11.80;99.90;;;;;;5027360;28;19992;-74
2022/04/23 07:07:11;;;;;;;;;;;11.80;99.90;;;;;;5028203;28;20394;-74
2022/04/23 07:09:38;;;;;;;;;;;11.90;99.90;;;;;;5023137;28;20284;-74
2022/04/23 07:12:05;;;;;;;;;;;11.90;99.90;;;;;;5031057;28;19929;-74
2022/04/23 07:14:33;;;;;;;;;;;12.00;99.90;;;;;;5027741;28;20385;-75
2022/04/23 07:16:59;;;;;;;;;;;12.00;99.90;;;;;;5021180;28;19925;-74
2022/04/23 07:19:26;;;;;;;;;;;12.00;99.90;;;;;;5032581;28;19925;-76
2022/04/23 07:21:54;;;;;;;;;;;12.10;99.90;;;;;;5032364;28;19932;-76
2022/04/23 07:24:21;;;;;;;;;;;12.10;99.90;;;;;;5029760;28;19929;-76
2022/04/23 07:26:48;;;;;;;;;;;12.20;99.90;;;;;;5045439;28;19925;-76
2022/04/23 07:29:15;;;;;;;;;;;12.20;99.90;;;;;;5026280;28;20341;-76
2022/04/23 07:31:42;;;;;;;;;;;12.30;99.90;;;;;;5025371;28;19978;-75
2022/04/23 07:39:38;;;;;;;;;;;12.60;99.90;;;;;;5029919;28;19964;-74
2022/04/23 07:42:06;;;;;;;;;;;12.70;99.90;;;;;;5028970;28;19925;-74
2022/04/23 07:44:33;;;;;;;;;;;12.70;99.90;;;;;;5031407;28;19925;-75
2022/04/23 07:46:59;;;;;;;;;;;12.80;99.90;;;;;;5028699;28;19925;-76
2022/04/23 07:49:26;;;;;;;;;;;12.80;99.90;;;;;;5030728;28;19986;-75
2022/04/23 07:51:55;;;;;;;;;;;12.90;99.90;;;;;;5030936;28;20489;-75
2022/04/23 07:54:21;;;;;;;;;;;12.90;99.90;;;;;;5023322;28;19980;-75
2022/04/23 07:56:48;;;;;;;;;;;13.00;99.90;;;;;;5026433;28;19929;-76
2022/04/23 07:59:15;;;;;;;;;;;13.10;99.90;;;;;;5026203;28;19925;-78
2022/04/23 08:01:42;;;;;;;;;;;13.10;99.90;;;;;;5030911;28;19925;-75
2022/04/23 08:04:09;;;;;;;;;;;13.20;99.90;;;;;;5022749;28;19972;-79
2022/04/23 08:06:35;;;;;;;;;;;13.30;99.90;;;;;;5033549;28;19925;-75
2022/04/23 08:09:04;;;;;;;;;;;13.30;99.90;;;;;;5021437;28;19925;-71
2022/04/23 08:11:31;;;;;;;;;;;13.40;99.90;;;;;;5021000;28;19929;-73
2022/04/23 08:13:58;;;;;;;;;;;13.50;99.90;;;;;;5039973;28;19979;-73
2022/04/23 08:16:27;;;;;;;;;;;13.60;99.90;;;;;;5026105;28;19925;-75
2022/04/23 08:18:55;;;;;;;;;;;13.90;99.90;;;;;;5028438;28;20388;-74
2022/04/23 08:21:22;;;;;;;;;;;13.80;99.90;;;;;;5039810;28;19933;-74
2022/04/23 08:23:49;;;;;;;;;;;14.00;99.90;;;;;;5026075;28;19925;-80
2022/04/23 08:26:17;;;;;;;;;;;14.00;99.90;;;;;;5012453;28;19925;-75
2022/04/23 08:31:28;;;;;;;;;;;14.20;99.90;;;;;;5024929;28;19932;-74
2022/04/23 08:34:01;;;;;;;;;;;14.40;99.90;;;;;;5032461;28;19933;-74
2022/04/23 08:36:30;;;;;;;;;;;14.30;99.90;;;;;;5032402;28;19925;-74
2022/04/23 08:38:58;;;;;;;;;;;14.40;99.90;;;;;;5032160;28;19948;-74
2022/04/23 08:41:29;;;;;;;;;;;14.50;99.90;;;;;;5032541;28;19979;-74
2022/04/23 08:43:57;;;;;;;;;;;14.70;99.90;;;;;;5031611;28;19929;-74
2022/04/23 08:46:25;;;;;;;;;;;14.70;99.90;;;;;;5031568;28;19925;-74
2022/04/23 08:48:55;;;;;;;;;;;14.70;99.90;;;;;;5031714;28;19947;-74
2022/04/23 08:51:23;;;;;;;;;;;14.90;99.90;;;;;;5031442;28;20347;-74
2022/04/23 08:53:54;;;;;;;;;;;15.10;99.90;;;;;;5031136;28;19925;-74
2022/04/23 08:56:20;;;;;;;;;;;15.20;99.90;;;;;;5031644;28;19952;-74
2022/04/23 08:58:49;;;;;;;;;;;15.30;99.90;;;;;;5031255;28;20324;-74
2022/04/23 09:01:16;;;;;;;;;;;15.40;99.90;;;;;;5031525;28;19925;-74
2022/04/23 09:03:43;;;;;;;;;;;15.40;99.90;;;;;;5031174;28;19929;-74
2022/04/23 09:06:09;;;;;;;;;;;15.30;99.90;;;;;;5031401;28;19933;-74
2022/04/23 09:08:36;;;;;;;;;;;15.30;99.90;;;;;;5031361;28;19925;-75
2022/04/23 09:11:03;;;;;;;;;;;15.40;99.90;;;;;;5031358;28;19929;-74
2022/04/23 09:13:30;;;;;;;;;;;15.50;99.90;;;;;;5030794;28;19925;-74
2022/04/23 09:24:20;;;;;;;;;;;15.90;99.90;;;;;;5031343;28;19921;-74
2022/04/23 09:27:03;;;;;;;;;;;16.00;99.90;;;;;;5031154;28;19975;-74
2022/04/23 09:29:30;;;;;;;;;;;16.20;99.90;;;;;;5031139;28;20036;-74
2022/04/23 09:32:11;;;;;;;;;;;16.30;99.90;;;;;;5031348;28;19925;-74
2022/04/23 09:34:38;;;;;;;;;;;16.40;99.90;;;;;;5030984;28;19929;-74
2022/04/23 09:37:05;;;;;;;;;;;16.60;99.90;;;;;;5031243;28;19931;-74
2022/04/23 09:39:34;;;;;;;;;;;16.60;99.90;;;;;;5030559;28;19979;-74
2022/04/23 09:42:14;;;;;;;;;;;16.70;99.90;;;;;;5030933;28;20290;-74
2022/04/23 09:44:41;;;;;;;;;;;16.70;99.90;;;;;;5030582;28;19925;-74
2022/04/23 09:47:08;;;;;;;;;;;16.70;99.90;;;;;;5030324;28;19925;-74
2022/04/23 09:49:38;;;;;;;;;;;16.60;99.90;;;;;;5030824;28;19964;-74
2022/04/23 09:52:06;;;;;;;;;;;16.80;99.90;;;;;;5030675;28;19925;-75
2022/04/23 09:54:33;;;;;;;;;;;16.70;99.90;;;;;;5030394;28;19929;-74
2022/04/23 09:57:00;;;;;;;;;;;16.80;99.90;;;;;;5030391;28;19925;-74
2022/04/23 09:59:27;;;;;;;;;;;16.80;99.90;;;;;;5030344;28;20397;-74
2022/04/23 10:01:54;;;;;;;;;;;17.00;99.90;;;;;;5033899;28;20286;-74
2022/04/23 10:04:23;;;;;;;;;;;17.20;99.90;;;;;;5034527;28;19925;-74
2022/04/23 10:06:52;;;;;;;;;;;17.30;99.90;;;;;;5034807;28;19965;-74
2022/04/23 10:09:21;;;;;;;;;;;17.40;99.90;;;;;;5034315;28;19931;-74
2022/04/23 10:11:50;;;;;;;;;;;17.40;99.90;;;;;;5034284;28;19959;-74
2022/04/23 10:14:19;;;;;;;;;;;17.30;99.90;;;;;;5033837;28;20352;-74
2022/04/23 10:16:47;;;;;;;;;;;17.40;99.90;;;;;;5035032;28;20420;-74
2022/04/23 10:19:15;;;;;;;;;;;17.50;99.90;;;;;;5033827;28;20316;-74
2022/04/23 10:21:43;;;;;;;;;;;17.70;99.90;;;;;;5034263;28;19925;-74
2022/04/23 10:24:14;;;;;;;;;;;17.80;99.90;;;;;;5034450;28;19975;-74
2022/04/23 10:26:49;;;;;;;;;;;17.90;99.90;;;;;;5034375;28;19925;-74
2022/04/23 10:29:16;;;;;;;;;;;17.80;99.90;;;;;;5034134;28;19929;-74
2022/04/23 10:31:43;;;;;;;;;;;17.90;99.90;;;;;;5050551;28;20466;-75
2022/04/23 10:34:29;;;;;;;;;;;17.80;99.90;;;;;;5033913;28;20171;-74
2022/04/23 10:37:11;;;;;;;;;;;18.00;99.90;;;;;;5034100;28;19929;-75
2022/04/23 10:39:40;;;;;;;;;;;18.20;99.90;;;;;;5033869;28;19933;-75
2022/04/23 10:42:07;;;;;;;;;;;18.40;99.90;;;;;;5033714;28;19932;-74
2022/04/23 10:44:33;;;;;;;;;;;18.60;99.90;;;;;;5033425;28;19932;-75
2022/04/23 10:47:00;;;;;;;;;;;18.60;99.90;;;;;;5033895;28;19929;-75
2022/04/23 10:49:27;;;;;;;;;;;18.80;99.90;;;;;;5033540;28;19929;-74
2022/04/23 10:51:55;;;;;;;;;;;18.90;99.90;;;;;;5033685;28;19932;-75
2022/04/23 10:54:42;;;;;;;;;;;19.00;99.90;;;;;;5033280;28;20400;-76
2022/04/23 10:57:11;;;;;;;;;;;19.10;99.90;;;;;;5033747;28;19936;-75
2022/04/23 10:59:42;;;;;;;;;;;19.10;99.90;;;;;;5033551;28;19925;-75
2022/04/23 11:02:29;;;;;;;;;;;19.30;99.90;;;;;;5034066;28;19925;-75
2022/04/23 11:13:27;;;;;;;;;;;19.70;99.90;;;;;;5013490;28;19921;-75
2022/04/23 11:16:07;;;;;;;;;;;19.90;99.90;;;;;;5015414;28;19933;-75
2022/04/23 11:18:34;;;;;;;;;;;20.00;99.90;;;;;;5015655;28;19980;-75
2022/04/23 11:21:05;;;;;;;;;;;20.30;99.90;;;;;;5015284;28;19932;-75
2022/04/23 11:23:33;;;;;;;;;;;20.40;99.90;;;;;;5015147;28;19930;-75
2022/04/23 11:25:59;;;;;;;;;;;20.20;99.90;;;;;;5015490;28;19925;-75
2022/04/23 11:28:28;;;;;;;;;;;20.10;99.90;;;;;;5015086;28;19971;-75
2022/04/23 11:30:57;;;;;;;;;;;20.00;99.90;;;;;;5015456;28;19925;-74
2022/04/23 11:33:24;;;;;;;;;;;20.00;99.90;;;;;;5015216;28;19955;-75
2022/04/23 11:35:50;;;;;;;;;;;20.30;99.90;;;;;;5015732;28;19925;-75
2022/04/23 11:38:18;;;;;;;;;;;20.50;99.90;;;;;;5015139;28;20019;-75
2022/04/23 11:40:45;;;;;;;;;;;20.00;99.90;;;;;;5015216;28;19929;-75
2022/04/23 11:43:13;;;;;;;;;;;20.00;99.90;;;;;;5015554;28;19926;-75
2022/04/23 11:45:47;;;;;;;;;;;20.20;99.90;;;;;;5015530;28;19926;-75
2022/04/23 11:48:15;;;;;;;;;;;21.70;99.90;;;;;;5015718;28;19930;-75
2022/04/23 11:50:42;;;;;;;;;;;22.70;99.90;;;;;;5014110;28;19926;-74
2022/04/23 11:53:10;;;;;;;;;;;23.80;99.90;;;;;;5014926;28;19925;-75
2022/04/23 11:55:36;;;;;;;;;;;24.20;99.90;;;;;;5014346;28;19926;-75
2022/04/23 11:58:05;;;;;;;;;;;24.20;99.90;;;;;;5014204;28;19933;-75
2022/04/23 12:00:32;;;;;;;;;;;24.40;99.90;;;;;;5014178;28;19926;-76
2022/04/23 12:03:01;;;;;;;;;;;25.00;99.90;;;;;;5013775;28;20409;-76
2022/04/23 12:05:29;;;;;;;;;;;24.90;99.90;;;;;;5014069;28;19925;-76
2022/04/23 12:07:56;;;;;;;;;;;25.20;99.90;;;;;;5015175;28;19926;-76
2022/04/23 12:10:24;;;;;;;;;;;24.70;99.90;;;;;;5015814;28;20338;-76
2022/04/23 12:12:51;;;;;;;;;;;23.70;99.90;;;;;;5066729;28;19929;-76
2022/04/23 12:15:20;;;;;;;;;;;23.70;99.90;;;;;;5033795;28;20037;-76
2022/04/23 12:17:48;;;;;;;;;;;23.80;99.90;;;;;;5034523;28;20385;-76
2022/04/23 12:20:17;;;;;;;;;;;24.80;99.90;;;;;;5034325;28;19929;-76
2022/04/23 12:22:54;;;;;;;;;;;25.90;99.90;;;;;;5035957;28;20281;-76
2022/04/23 12:25:25;;;;;;;;;;;26.20;99.90;;;;;;5035099;28;19937;-76
2022/04/23 12:27:52;;;;;;;;;;;27.00;99.90;;;;;;5051777;28;19925;-76
2022/04/23 12:41:24;;;;;;;;;;;23.70;99.90;;;;;;5013745;28;19984;-76
2022/04/23 12:43:52;;;;;;;;;;;24.10;99.90;;;;;;5014110;28;19930;-76
2022/04/23 12:46:19;;;;;;;;;;;24.30;99.90;;;;;;5014144;28;20016;-76
2022/04/23 12:48:59;;;;;;;;;;;24.20;99.90;;;;;;5013731;28;19925;-76
2022/04/23 12:51:27;;;;;;;;;;;24.40;99.90;;;;;;5013970;28;19925;-76
2022/04/23 12:53:54;;;;;;;;;;;24.70;99.90;;;;;;5012986;28;19963;-76
2022/04/23 12:56:32;;;;;;;;;;;24.10;99.90;;;;;;5013404;28;19926;-76
2022/04/23 12:58:58;;;;;;;;;;;23.90;99.90;;;;;;5013224;28;20324;-76
2022/04/23 13:01:25;;;;;;;;;;;24.20;99.90;;;;;;5013304;28;19929;-76
2022/04/23 13:03:52;;;;;;;;;;;24.30;99.90;;;;;;5012879;28;19940;-76
2022/04/23 13:09:10;;;;;;;;;;;26.10;99.90;;;;;;4960436;28;19927;-76
2022/04/23 13:11:36;;;;;;;;;;;24.90;99.90;;;;;;5025146;28;19983;-76
2022/04/23 13:14:05;;;;;;;;;;;24.30;99.90;;;;;;5032887;28;19924;-76
2022/04/23 13:16:32;;;;;;;;;;;24.10;99.90;;;;;;5032677;28;20427;-76
2022/04/23 13:19:00;;;;;;;;;;;23.30;99.90;;;;;;5032065;28;19976;-76
2022/04/23 13:21:27;;;;;;;;;;;23.10;99.90;;;;;;5032498;28;19971;-76
2022/04/23 13:23:55;;;;;;;;;;;23.50;99.90;;;;;;5032651;28;19996;-76
2022/04/23 13:26:25;;;;;;;;;;;23.90;99.90;;;;;;5032878;28;19931;-76
2022/04/23 13:28:52;;;;;;;;;;;23.90;99.90;;;;;;5031412;28;19926;-75
2022/04/23 13:31:18;;;;;;;;;;;23.90;99.90;;;;;;5048708;28;19928;-76
2022/04/23 13:33:45;;;;;;;;;;;23.50;99.90;;;;;;5031701;28;20315;-76
2022/04/23 13:36:12;;;;;;;;;;;23.50;99.90;;;;;;5030886;28;19929;-76
2022/04/23 13:38:39;;;;;;;;;;;23.70;99.90;;;;;;5031694;28;19925;-76
2022/04/23 13:41:08;;;;;;;;;;;23.30;99.90;;;;;;5031195;28;19929;-76
2022/04/23 13:43:36;;;;;;;;;;;23.20;99.90;;;;;;5031508;28;19936;-76
2022/04/23 13:46:03;;;;;;;;;;;23.50;99.90;;;;;;5032194;28;20420;-76
2022/04/23 13:48:30;;;;;;;;;;;23.80;99.90;;;;;;5031627;28;19975;-76
2022/04/23 13:50:57;;;;;;;;;;;24.10;99.90;;;;;;5031601;28;19925;-76
2022/04/23 13:53:24;;;;;;;;;;;24.10;99.90;;;;;;5047946;28;19925;-76
2022/04/23 13:55:50;;;;;;;;;;;23.60;99.90;;;;;;5031568;28;20351;-76
2022/04/23 13:58:17;;;;;;;;;;;23.80;99.90;;;;;;5031364;28;19925;-75
2022/04/23 14:00:46;;;;;;;;;;;23.70;99.90;;;;;;5047983;28;19925;-75
2022/04/23 14:11:25;;;;;;;;;;;22.30;99.90;;;;;;5021484;28;19925;-75
2022/04/23 14:13:52;;;;;;;;;;;21.50;99.90;;;;;;5011797;28;20003;-75
2022/04/23 14:16:21;;;;;;;;;;;21.70;99.90;;;;;;5012218;28;19925;-75
2022/04/23 14:18:47;;;;;;;;;;;22.00;99.90;;;;;;5011727;28;20005;-75
2022/04/23 14:21:14;;;;;;;;;;;22.40;99.90;;;;;;5011413;28;19925;-75
2022/04/23 14:23:41;;;;;;;;;;;22.60;99.90;;;;;;5010947;28;19929;-75
2022/04/23 14:26:08;;;;;;;;;;;22.40;99.90;;;;;;5011882;28;19979;-75
2022/04/23 14:28:34;;;;;;;;;;;22.50;99.90;;;;;;5012016;28;19925;-75
2022/04/23 14:31:01;;;;;;;;;;;22.40;99.90;;;;;;5012134;28;19925;-76
2022/04/23 14:33:30;;;;;;;;;;;22.60;99.90;;;;;;5011867;28;19929;-75
2022/04/23 14:35:57;;;;;;;;;;;22.40;99.90;;;;;;5012279;28;19926;-75
2022/04/23 14:38:24;;;;;;;;;;;22.40;99.90;;;;;;5012081;28;19926;-75
2022/04/23 14:40:51;;;;;;;;;;;22.40;99.90;;;;;;5011164;28;20340;-75
2022/04/23 14:43:18;;;;;;;;;;;22.40;99.90;;;;;;5011407;28;19932;-75
2022/04/23 14:45:45;;;;;;;;;;;22.60;99.90;;;;;;5011151;28;19941;-75
2022/04/23 14:48:11;;;;;;;;;;;22.30;99.90;;;;;;5014879;28;19925;-75
2022/04/23 14:53:24;;;;;;;;;;;21.80;99.90;;;;;;5032510;28;19933;-74
2022/04/23 14:55:50;;;;;;;;;;;21.80;99.90;;;;;;5033441;28;19975;-74
2022/04/23 14:58:17;;;;;;;;;;;21.80;99.90;;;;;;5028554;28;19929;-74
2022/04/23 15:00:44;;;;;;;;;;;21.90;99.90;;;;;;5025663;28;19925;-74
2022/04/23 15:03:11;;;;;;;;;;;21.80;99.90;;;;;;5024439;28;19925;-75
2022/04/23 15:05:39;;;;;;;;;;;21.70;99.90;;;;;;5024034;28;19975;-75
2022/04/23 15:08:08;;;;;;;;;;;21.40;99.90;;;;;;5015564;28;19929;-75
2022/04/23 15:10:34;;;;;;;;;;;21.30;99.90;;;;;;5017989;28;19925;-75
2022/04/23 15:13:03;;;;;;;;;;;21.40;99.90;;;;;;5035040;28;19932;-75
2022/04/23 15:15:30;;;;;;;;;;;21.10;99.90;;;;;;5034921;28;19926;-75
2022/04/23 15:17:58;;;;;;;;;;;21.00;99.90;;;;;;5068100;28;20375;-75